Time;durP1;ratioP1;P1;durP2;ratioP2;P2;SDS_P1;SDS_P2;PMS_P1;PMS_P2;Temp;Humidity;BMP_temperature;BMP_pressure;BME280_temperature;BME280_humidity;BME280_pressure;Samples;Min_cycle;Max_cycle;Signal;HPM_P1;HPM_P2
2022/05/31 00:02:02;;;;;;;;;;;18.80;98.30;;;;;;5074223;28;19912;-51
2022/05/31 00:04:28;;;;;;;;;;;18.80;98.30;;;;;;5074702;28;19975;-53
2022/05/31 00:06:54;;;;;;;;;;;18.80;98.30;;;;;;5074064;28;19908;-52
2022/05/31 00:09:19;;;;;;;;;;;18.80;98.30;;;;;;5074375;28;19909;-51
2022/05/31 00:11:45;;;;;;;;;;;18.80;98.30;;;;;;5073969;28;20365;-48
2022/05/31 00:14:11;;;;;;;;;;;18.80;98.30;;;;;;5074214;28;19908;-51
2022/05/31 00:16:37;;;;;;;;;;;18.80;98.30;;;;;;5074342;28;19916;-51
2022/05/31 00:19:03;;;;;;;;;;;18.80;98.30;;;;;;5074167;28;19912;-49
2022/05/31 00:21:40;;;;;;;;;;;18.80;98.40;;;;;;5074169;28;20351;-52
2022/05/31 00:24:06;;;;;;;;;;;18.80;98.30;;;;;;5056160;28;19915;-52
2022/05/31 00:26:32;;;;;;;;;;;18.80;98.30;;;;;;5074047;28;19908;-55
2022/05/31 00:28:58;;;;;;;;;;;18.80;98.30;;;;;;5073755;28;19919;-50
2022/05/31 00:31:23;;;;;;;;;;;18.80;98.30;;;;;;5074031;28;19909;-52
2022/05/31 00:33:49;;;;;;;;;;;18.80;98.30;;;;;;5074027;28;19915;-53
2022/05/31 00:36:15;;;;;;;;;;;18.80;98.30;;;;;;5073811;28;20003;-52
2022/05/31 00:38:40;;;;;;;;;;;18.80;98.30;;;;;;5055901;28;20423;-52
2022/05/31 00:41:26;;;;;;;;;;;18.80;98.30;;;;;;5073986;28;20390;-53
2022/05/31 00:43:59;;;;;;;;;;;18.80;98.30;;;;;;5056102;28;19955;-50
2022/05/31 00:46:28;;;;;;;;;;;18.80;98.30;;;;;;5074390;28;20325;-53
2022/05/31 00:48:56;;;;;;;;;;;18.80;98.30;;;;;;5074173;28;19909;-53
2022/05/31 00:51:22;;;;;;;;;;;18.80;98.30;;;;;;5073899;28;19961;-52
2022/05/31 00:53:49;;;;;;;;;;;18.80;98.30;;;;;;5073320;28;19921;-50
2022/05/31 00:56:22;;;;;;;;;;;18.70;98.30;;;;;;5073612;28;19958;-53
2022/05/31 00:59:08;;;;;;;;;;;18.70;98.30;;;;;;5073759;28;19920;-51
2022/05/31 01:01:35;;;;;;;;;;;18.80;98.30;;;;;;5073079;28;20054;-50
2022/05/31 01:04:01;;;;;;;;;;;18.70;98.30;;;;;;5073872;28;20271;-52
2022/05/31 01:06:27;;;;;;;;;;;18.80;98.30;;;;;;5073475;28;19909;-53
2022/05/31 01:08:54;;;;;;;;;;;18.70;98.30;;;;;;5073677;28;19908;-53
2022/05/31 01:11:21;;;;;;;;;;;18.70;98.30;;;;;;5055818;28;19936;-51
2022/05/31 01:13:46;;;;;;;;;;;18.70;98.30;;;;;;5073930;28;19915;-54
2022/05/31 01:16:13;;;;;;;;;;;18.70;98.30;;;;;;5077355;28;19912;-53
2022/05/31 01:18:38;;;;;;;;;;;18.70;98.30;;;;;;5077527;28;19912;-53
2022/05/31 01:21:05;;;;;;;;;;;18.70;98.30;;;;;;5077227;28;19974;-49
2022/05/31 01:23:36;;;;;;;;;;;18.70;98.30;;;;;;5077489;28;20398;-54
2022/05/31 01:26:08;;;;;;;;;;;18.70;98.30;;;;;;5077536;28;19909;-52
2022/05/31 01:28:46;;;;;;;;;;;18.70;98.20;;;;;;5077400;28;19908;-50
2022/05/31 01:31:17;;;;;;;;;;;18.70;98.20;;;;;;5077114;28;19908;-52
2022/05/31 01:33:57;;;;;;;;;;;18.70;98.30;;;;;;5077202;28;19908;-52
2022/05/31 01:36:25;;;;;;;;;;;18.70;98.30;;;;;;5077044;28;20356;-51
2022/05/31 01:38:58;;;;;;;;;;;18.70;98.20;;;;;;5076774;28;19913;-53
2022/05/31 01:41:42;;;;;;;;;;;18.70;98.20;;;;;;5059175;28;19919;-52
2022/05/31 01:44:12;;;;;;;;;;;18.70;98.20;;;;;;5077011;28;19908;-49
2022/05/31 01:46:37;;;;;;;;;;;18.70;98.20;;;;;;5077048;28;19912;-52
2022/05/31 01:49:06;;;;;;;;;;;18.70;98.20;;;;;;5076879;28;19913;-54
2022/05/31 01:51:32;;;;;;;;;;;18.70;98.20;;;;;;5076932;28;19909;-54
2022/05/31 01:53:58;;;;;;;;;;;18.70;98.20;;;;;;5076884;28;19929;-54
2022/05/31 01:56:23;;;;;;;;;;;18.70;98.30;;;;;;5076824;28;19908;-51
2022/05/31 01:58:50;;;;;;;;;;;18.70;98.20;;;;;;5076488;28;19917;-50
2022/05/31 02:01:16;;;;;;;;;;;18.70;98.20;;;;;;5077131;28;19938;-53
2022/05/31 02:03:43;;;;;;;;;;;18.70;98.20;;;;;;5076891;28;19912;-50
2022/05/31 02:06:26;;;;;;;;;;;18.70;98.50;;;;;;5076767;28;20118;-51
2022/05/31 02:08:51;;;;;;;;;;;18.70;98.20;;;;;;5076672;28;19934;-48
2022/05/31 02:11:17;;;;;;;;;;;18.70;98.20;;;;;;5076636;28;20274;-52
2022/05/31 02:13:42;;;;;;;;;;;18.70;98.20;;;;;;5058624;28;19924;-52
2022/05/31 02:16:08;;;;;;;;;;;18.70;98.20;;;;;;5076874;28;19909;-49
2022/05/31 02:21:17;;;;;;;;;;;18.70;98.20;;;;;;5076574;28;20008;-51
2022/05/31 02:23:43;;;;;;;;;;;18.70;98.20;;;;;;5076035;28;19944;-50
2022/05/31 02:26:08;;;;;;;;;;;18.70;98.20;;;;;;5076270;28;19916;-51
2022/05/31 02:28:34;;;;;;;;;;;18.70;98.20;;;;;;5075925;28;19944;-52
2022/05/31 02:30:59;;;;;;;;;;;18.70;98.20;;;;;;5076032;28;20450;-49
2022/05/31 02:33:25;;;;;;;;;;;18.70;98.10;;;;;;5075853;28;19912;-53
2022/05/31 02:35:50;;;;;;;;;;;18.70;98.20;;;;;;5075841;28;20374;-51
2022/05/31 02:38:16;;;;;;;;;;;18.70;98.20;;;;;;5075850;28;19959;-53
2022/05/31 02:40:41;;;;;;;;;;;18.70;98.20;;;;;;5076081;28;20117;-51
2022/05/31 02:43:07;;;;;;;;;;;18.70;98.20;;;;;;5076034;28;20381;-51
2022/05/31 02:45:33;;;;;;;;;;;18.70;98.20;;;;;;5075620;28;19916;-49
2022/05/31 02:47:59;;;;;;;;;;;18.70;98.20;;;;;;5057824;28;19913;-54
2022/05/31 02:50:25;;;;;;;;;;;18.60;98.20;;;;;;5075488;28;19919;-54
2022/05/31 02:52:50;;;;;;;;;;;18.60;98.20;;;;;;5075742;28;19915;-52
2022/05/31 02:55:16;;;;;;;;;;;18.70;98.20;;;;;;5075128;28;19928;-48
2022/05/31 02:57:42;;;;;;;;;;;18.70;98.20;;;;;;5075573;28;19916;-49
2022/05/31 03:00:08;;;;;;;;;;;18.70;98.10;;;;;;5075747;28;19913;-50
2022/05/31 03:02:35;;;;;;;;;;;18.60;98.10;;;;;;5075566;28;20003;-52
2022/05/31 03:05:01;;;;;;;;;;;18.70;98.10;;;;;;5075594;28;19931;-52
2022/05/31 03:07:26;;;;;;;;;;;18.70;98.10;;;;;;5057554;28;20339;-51
2022/05/31 03:09:52;;;;;;;;;;;18.70;98.10;;;;;;5075390;28;19909;-49
2022/05/31 03:12:19;;;;;;;;;;;18.70;98.10;;;;;;5074966;28;19970;-53
2022/05/31 03:14:44;;;;;;;;;;;18.70;98.10;;;;;;5075163;28;19909;-53
2022/05/31 03:17:13;;;;;;;;;;;18.60;98.10;;;;;;5075511;28;19908;-48
2022/05/31 03:19:42;;;;;;;;;;;18.70;98.10;;;;;;5075260;28;19912;-52
2022/05/31 03:22:11;;;;;;;;;;;18.70;98.10;;;;;;5075247;28;20267;-52
2022/05/31 03:24:39;;;;;;;;;;;18.60;98.10;;;;;;5075124;28;19909;-54
2022/05/31 03:27:06;;;;;;;;;;;18.70;98.10;;;;;;5074939;28;19923;-54
2022/05/31 03:29:32;;;;;;;;;;;18.70;98.10;;;;;;5074938;28;20000;-51
2022/05/31 03:31:58;;;;;;;;;;;18.70;98.10;;;;;;5074889;28;20334;-50
2022/05/31 03:34:23;;;;;;;;;;;18.60;98.10;;;;;;5074676;28;19962;-49
2022/05/31 03:36:49;;;;;;;;;;;18.70;98.10;;;;;;5074314;28;19915;-50
2022/05/31 03:39:14;;;;;;;;;;;18.60;98.10;;;;;;5056629;28;19913;-51
2022/05/31 03:41:40;;;;;;;;;;;18.70;98.10;;;;;;5074536;28;19912;-50
2022/05/31 03:44:06;;;;;;;;;;;18.60;98.10;;;;;;5074777;28;19917;-48
2022/05/31 03:46:31;;;;;;;;;;;18.70;98.10;;;;;;5074340;28;20363;-53
2022/05/31 03:48:58;;;;;;;;;;;18.70;98.10;;;;;;5074579;28;19958;-52
2022/05/31 03:51:23;;;;;;;;;;;18.70;98.10;;;;;;5056624;28;19923;-51
2022/05/31 03:53:49;;;;;;;;;;;18.70;98.10;;;;;;5073966;28;19920;-53
2022/05/31 03:56:14;;;;;;;;;;;18.60;98.10;;;;;;5074249;28;20003;-54
2022/05/31 03:58:40;;;;;;;;;;;18.60;98.10;;;;;;5074326;28;19939;-51
2022/05/31 04:01:06;;;;;;;;;;;18.60;98.10;;;;;;5074474;28;19924;-52
2022/05/31 04:03:32;;;;;;;;;;;18.60;98.00;;;;;;5074401;28;19912;-50
2022/05/31 04:05:58;;;;;;;;;;;18.60;98.10;;;;;;5074144;28;19919;-49
2022/05/31 04:08:25;;;;;;;;;;;18.70;98.30;;;;;;5074377;28;19908;-52
2022/05/31 04:10:51;;;;;;;;;;;18.60;98.10;;;;;;5074312;28;20315;-50
2022/05/31 04:13:17;;;;;;;;;;;18.60;98.10;;;;;;5074048;28;19948;-53
2022/05/31 04:15:43;;;;;;;;;;;18.70;98.30;;;;;;5073402;28;19909;-52
2022/05/31 04:18:08;;;;;;;;;;;18.70;98.10;;;;;;5074374;28;20392;-51
2022/05/31 04:20:37;;;;;;;;;;;18.70;98.00;;;;;;5056288;28;20393;-50
2022/05/31 04:25:47;;;;;;;;;;;18.70;98.00;;;;;;5074248;28;19958;-49
2022/05/31 04:28:12;;;;;;;;;;;18.70;98.00;;;;;;5074024;28;19916;-50
2022/05/31 04:30:42;;;;;;;;;;;18.70;98.00;;;;;;5073727;28;19908;-53
2022/05/31 04:33:07;;;;;;;;;;;18.70;98.00;;;;;;5073863;28;19915;-52
2022/05/31 04:35:33;;;;;;;;;;;18.70;98.00;;;;;;5055991;28;19908;-50
2022/05/31 04:37:58;;;;;;;;;;;18.70;97.90;;;;;;5055922;28;20001;-53
2022/05/31 04:40:24;;;;;;;;;;;18.70;97.90;;;;;;5055933;28;19913;-55
2022/05/31 04:42:50;;;;;;;;;;;18.70;97.90;;;;;;5073558;28;20003;-49
2022/05/31 04:45:16;;;;;;;;;;;18.70;97.90;;;;;;5073422;28;19912;-52
2022/05/31 04:47:43;;;;;;;;;;;18.70;97.90;;;;;;5073836;28;19908;-51
2022/05/31 04:50:08;;;;;;;;;;;18.70;98.00;;;;;;5076794;28;20374;-54
2022/05/31 04:52:34;;;;;;;;;;;18.70;98.00;;;;;;5077619;28;19908;-51
2022/05/31 04:54:59;;;;;;;;;;;18.70;98.00;;;;;;5077925;28;20430;-54
2022/05/31 04:57:25;;;;;;;;;;;18.70;98.00;;;;;;5059746;28;19992;-54
2022/05/31 04:59:52;;;;;;;;;;;18.70;98.00;;;;;;5078086;28;20375;-51
2022/05/31 05:02:17;;;;;;;;;;;18.70;98.00;;;;;;5077813;28;19962;-51
2022/05/31 05:04:42;;;;;;;;;;;18.70;98.00;;;;;;5077215;28;19909;-50
2022/05/31 05:07:08;;;;;;;;;;;18.70;98.00;;;;;;5077313;28;19908;-52
2022/05/31 05:09:33;;;;;;;;;;;18.70;98.00;;;;;;5077684;28;19916;-50
2022/05/31 05:11:59;;;;;;;;;;;18.70;98.00;;;;;;5077126;28;19970;-50
2022/05/31 05:14:25;;;;;;;;;;;18.70;98.00;;;;;;5077320;28;19909;-54
2022/05/31 05:16:52;;;;;;;;;;;18.70;98.00;;;;;;5076913;28;19913;-54
2022/05/31 05:19:18;;;;;;;;;;;18.70;98.00;;;;;;5077012;28;19912;-53
2022/05/31 05:21:44;;;;;;;;;;;18.70;97.90;;;;;;5076974;28;19943;-51
2022/05/31 05:24:09;;;;;;;;;;;18.70;98.00;;;;;;5077101;28;19915;-53
2022/05/31 05:26:35;;;;;;;;;;;18.70;98.00;;;;;;5058956;28;20363;-51
2022/05/31 05:31:44;;;;;;;;;;;18.70;97.90;;;;;;5076867;28;20278;-53
2022/05/31 05:34:10;;;;;;;;;;;18.70;97.90;;;;;;5076770;28;19908;-52
2022/05/31 05:36:35;;;;;;;;;;;18.80;98.00;;;;;;5077104;28;19934;-54
2022/05/31 05:39:01;;;;;;;;;;;18.70;97.90;;;;;;5076633;28;19931;-55
2022/05/31 05:41:28;;;;;;;;;;;18.70;97.90;;;;;;5076670;28;19959;-53
2022/05/31 05:43:53;;;;;;;;;;;18.70;97.90;;;;;;5076666;28;19909;-54
2022/05/31 05:46:20;;;;;;;;;;;18.70;97.90;;;;;;5076694;28;19908;-54
2022/05/31 05:48:46;;;;;;;;;;;18.80;97.90;;;;;;5076024;28;19947;-55
2022/05/31 05:51:14;;;;;;;;;;;18.80;97.90;;;;;;5058776;28;19951;-53
2022/05/31 05:53:40;;;;;;;;;;;18.80;97.90;;;;;;5076070;28;19920;-52
2022/05/31 05:56:05;;;;;;;;;;;18.80;97.90;;;;;;5058467;28;19915;-55
2022/05/31 05:58:31;;;;;;;;;;;18.70;97.90;;;;;;5076250;28;19913;-52
2022/05/31 06:00:56;;;;;;;;;;;18.80;97.90;;;;;;5075368;28;19919;-52
2022/05/31 06:03:24;;;;;;;;;;;18.80;97.90;;;;;;5076345;28;19962;-53
2022/05/31 06:05:50;;;;;;;;;;;18.80;97.90;;;;;;5076151;28;19926;-50
2022/05/31 06:08:21;;;;;;;;;;;18.80;97.90;;;;;;5075912;28;20007;-53
2022/05/31 06:10:55;;;;;;;;;;;18.80;97.90;;;;;;5075954;28;19919;-53
2022/05/31 06:13:23;;;;;;;;;;;18.80;97.90;;;;;;5076265;28;20359;-50
2022/05/31 06:15:50;;;;;;;;;;;18.80;97.90;;;;;;5075844;28;19915;-51
2022/05/31 06:18:18;;;;;;;;;;;18.70;97.90;;;;;;5075906;28;19912;-52
2022/05/31 06:20:46;;;;;;;;;;;18.70;97.90;;;;;;5075950;28;19913;-51
2022/05/31 06:23:12;;;;;;;;;;;18.80;98.00;;;;;;5075588;28;20316;-53
2022/05/31 06:25:37;;;;;;;;;;;18.80;98.00;;;;;;5075657;28;19932;-53
2022/05/31 06:28:03;;;;;;;;;;;18.70;97.90;;;;;;5075586;28;20319;-52
2022/05/31 06:30:28;;;;;;;;;;;18.80;98.20;;;;;;5076066;28;19909;-55
2022/05/31 06:32:55;;;;;;;;;;;18.80;98.00;;;;;;5075472;28;19908;-54
2022/05/31 06:35:20;;;;;;;;;;;18.70;97.90;;;;;;5041101;28;19916;-55
2022/05/31 06:37:46;;;;;;;;;;;18.80;98.00;;;;;;5075598;28;20274;-49
2022/05/31 06:40:11;;;;;;;;;;;18.70;97.90;;;;;;5075647;28;20347;-52
2022/05/31 06:42:37;;;;;;;;;;;18.80;98.00;;;;;;5075242;28;19915;-53
2022/05/31 06:45:03;;;;;;;;;;;18.80;98.00;;;;;;5075113;28;19909;-52
2022/05/31 06:47:28;;;;;;;;;;;18.80;98.00;;;;;;5075304;28;19909;-53
2022/05/31 06:49:54;;;;;;;;;;;18.80;98.00;;;;;;5075082;28;20348;-53
2022/05/31 06:57:48;;;;;;;;;;;18.70;98.00;;;;;;5075358;28;19981;-53
2022/05/31 07:00:21;;;;;;;;;;;18.80;98.00;;;;;;5075542;28;19912;-53
2022/05/31 07:02:47;;;;;;;;;;;18.80;98.00;;;;;;5074813;28;19956;-50
2022/05/31 07:05:13;;;;;;;;;;;18.80;98.00;;;;;;5074749;28;19909;-53
2022/05/31 07:07:39;;;;;;;;;;;18.80;98.00;;;;;;5074784;28;19908;-53
2022/05/31 07:10:06;;;;;;;;;;;18.80;98.00;;;;;;5074904;28;20363;-50
2022/05/31 07:12:32;;;;;;;;;;;18.80;98.00;;;;;;5074339;28;19959;-50
2022/05/31 07:14:58;;;;;;;;;;;18.80;98.00;;;;;;5074692;28;19913;-51
2022/05/31 07:17:23;;;;;;;;;;;18.70;98.00;;;;;;5056838;28;20271;-52
2022/05/31 07:19:49;;;;;;;;;;;18.80;98.00;;;;;;5074949;28;19916;-54
2022/05/31 07:22:15;;;;;;;;;;;18.80;98.00;;;;;;5075198;28;20244;-53
2022/05/31 07:24:40;;;;;;;;;;;18.80;98.00;;;;;;5074866;28;19908;-54
2022/05/31 07:27:06;;;;;;;;;;;18.80;98.00;;;;;;5074389;28;19966;-53
2022/05/31 07:29:31;;;;;;;;;;;18.80;98.00;;;;;;5056455;28;19908;-51
2022/05/31 07:31:57;;;;;;;;;;;18.80;98.00;;;;;;5074609;28;20361;-53
2022/05/31 07:34:23;;;;;;;;;;;18.80;98.00;;;;;;5074397;28;20302;-52
2022/05/31 07:36:49;;;;;;;;;;;18.80;98.00;;;;;;5074614;28;20006;-51
2022/05/31 07:39:16;;;;;;;;;;;18.70;98.00;;;;;;5074783;28;20375;-51
2022/05/31 07:41:42;;;;;;;;;;;18.80;98.00;;;;;;5074431;28;19918;-51
2022/05/31 07:44:07;;;;;;;;;;;18.80;98.00;;;;;;5074171;28;19991;-51
2022/05/31 07:46:33;;;;;;;;;;;18.80;98.00;;;;;;5074041;28;19915;-55
2022/05/31 07:48:59;;;;;;;;;;;18.80;98.00;;;;;;5074019;28;19913;-55
2022/05/31 07:51:25;;;;;;;;;;;18.80;98.00;;;;;;5074088;28;19908;-55
2022/05/31 07:53:52;;;;;;;;;;;18.80;98.00;;;;;;5073863;28;19927;-54
2022/05/31 07:56:18;;;;;;;;;;;18.80;98.00;;;;;;5074192;28;19912;-55
2022/05/31 07:58:44;;;;;;;;;;;18.80;98.00;;;;;;5073830;28;20003;-54
2022/05/31 08:01:13;;;;;;;;;;;18.80;98.00;;;;;;5073489;28;20216;-50
2022/05/31 08:03:38;;;;;;;;;;;18.80;98.00;;;;;;5074249;28;19909;-54
2022/05/31 08:06:06;;;;;;;;;;;18.80;98.00;;;;;;5074182;28;19915;-52
2022/05/31 08:08:32;;;;;;;;;;;18.80;98.00;;;;;;5073898;28;19911;-54
2022/05/31 08:11:01;;;;;;;;;;;18.80;98.00;;;;;;5073854;28;19920;-51
2022/05/31 08:13:26;;;;;;;;;;;18.80;98.00;;;;;;5056067;28;19962;-55
2022/05/31 08:15:52;;;;;;;;;;;18.80;98.00;;;;;;5074036;28;19913;-54
2022/05/31 08:18:17;;;;;;;;;;;18.80;98.00;;;;;;5055886;28;19912;-53
2022/05/31 08:20:43;;;;;;;;;;;18.80;97.90;;;;;;5073936;28;19919;-54
2022/05/31 08:23:08;;;;;;;;;;;18.80;97.90;;;;;;5073857;28;19916;-54
2022/05/31 08:25:36;;;;;;;;;;;18.80;98.00;;;;;;5055863;28;19916;-53
2022/05/31 08:28:01;;;;;;;;;;;18.80;98.00;;;;;;5073714;28;19999;-53
2022/05/31 08:30:27;;;;;;;;;;;18.80;98.00;;;;;;5073910;28;19999;-51
2022/05/31 08:32:53;;;;;;;;;;;18.80;98.00;;;;;;5073582;28;19934;-54
2022/05/31 08:35:18;;;;;;;;;;;18.80;98.00;;;;;;5073411;28;19916;-50
2022/05/31 08:37:43;;;;;;;;;;;18.80;98.00;;;;;;5073379;28;19935;-53
2022/05/31 08:40:09;;;;;;;;;;;18.80;98.00;;;;;;5073243;28;19912;-53
2022/05/31 08:42:38;;;;;;;;;;;18.80;98.00;;;;;;5073710;28;20386;-53
2022/05/31 08:45:07;;;;;;;;;;;18.80;98.00;;;;;;5055681;28;19909;-51
2022/05/31 08:48:11;;;;;;;;;;;18.80;98.00;;;;;;5073025;28;19915;-53
2022/05/31 08:53:33;;;;;;;;;;;18.80;98.00;;;;;;4972755;28;20262;-50
2022/05/31 08:59:03;;;;;;;;;;;18.80;97.90;;;;;;5073495;28;20267;-55
2022/05/31 09:01:37;;;;;;;;;;;18.80;98.00;;;;;;5073577;28;20405;-54
2022/05/31 09:04:14;;;;;;;;;;;18.80;98.00;;;;;;5073698;28;19915;-51
2022/05/31 09:06:45;;;;;;;;;;;18.80;98.00;;;;;;5055485;28;20038;-50
2022/05/31 09:09:12;;;;;;;;;;;18.80;98.00;;;;;;5072831;28;20343;-53
2022/05/31 09:11:41;;;;;;;;;;;18.80;97.90;;;;;;5072936;28;19918;-52
2022/05/31 09:14:13;;;;;;;;;;;18.80;97.80;;;;;;5073443;28;19913;-52
2022/05/31 09:16:43;;;;;;;;;;;18.80;97.80;;;;;;5055433;28;20266;-54
2022/05/31 09:19:12;;;;;;;;;;;18.80;97.90;;;;;;5072959;28;20243;-51
2022/05/31 09:21:40;;;;;;;;;;;18.80;97.90;;;;;;5073276;28;19912;-53
2022/05/31 09:24:07;;;;;;;;;;;18.80;97.90;;;;;;5073148;28;20413;-53
2022/05/31 09:26:42;;;;;;;;;;;18.80;97.80;;;;;;5073002;28;19931;-55
2022/05/31 09:29:13;;;;;;;;;;;18.80;97.80;;;;;;5072828;28;19995;-55
2022/05/31 09:31:44;;;;;;;;;;;18.80;97.80;;;;;;5055379;28;20240;-52
2022/05/31 09:34:19;;;;;;;;;;;18.80;97.90;;;;;;5073139;28;19908;-52
2022/05/31 09:36:48;;;;;;;;;;;18.80;97.90;;;;;;5076491;28;19916;-51
2022/05/31 09:39:16;;;;;;;;;;;18.80;97.80;;;;;;5076520;28;19917;-53
2022/05/31 09:41:42;;;;;;;;;;;18.80;97.90;;;;;;5076651;28;20277;-52
2022/05/31 09:44:10;;;;;;;;;;;18.80;97.90;;;;;;5077253;28;19908;-50
2022/05/31 09:46:36;;;;;;;;;;;18.80;97.80;;;;;;5076814;28;19969;-54
2022/05/31 09:49:10;;;;;;;;;;;18.80;97.80;;;;;;5076323;28;20003;-49
2022/05/31 09:51:41;;;;;;;;;;;18.80;97.80;;;;;;5076765;28;19912;-50
2022/05/31 09:57:06;;;;;;;;;;;18.80;98.00;;;;;;5076119;28;19974;-53
2022/05/31 09:59:34;;;;;;;;;;;18.80;98.00;;;;;;5076719;28;19962;-52
2022/05/31 10:02:20;;;;;;;;;;;18.80;98.00;;;;;;5076246;28;19948;-53
2022/05/31 10:04:47;;;;;;;;;;;18.80;98.00;;;;;;5058603;28;19931;-53
2022/05/31 10:07:12;;;;;;;;;;;18.80;98.00;;;;;;5076388;28;19943;-53
2022/05/31 10:09:39;;;;;;;;;;;18.80;98.00;;;;;;5076577;28;19916;-53
2022/05/31 10:12:23;;;;;;;;;;;18.80;98.00;;;;;;5076609;28;19909;-52
2022/05/31 10:14:50;;;;;;;;;;;18.80;98.00;;;;;;5076072;28;20302;-54
2022/05/31 10:17:27;;;;;;;;;;;18.80;98.00;;;;;;5076285;28;19909;-52
2022/05/31 10:20:14;;;;;;;;;;;18.80;98.00;;;;;;5076200;28;19924;-50
2022/05/31 10:22:49;;;;;;;;;;;18.80;98.00;;;;;;5058196;28;19973;-50
2022/05/31 10:25:19;;;;;;;;;;;18.80;98.00;;;;;;5076487;28;19959;-52
2022/05/31 10:27:44;;;;;;;;;;;18.80;98.00;;;;;;5076420;28;19909;-53
2022/05/31 10:30:16;;;;;;;;;;;18.80;98.00;;;;;;5075758;28;19912;-53
2022/05/31 10:32:41;;;;;;;;;;;18.80;98.00;;;;;;5076202;28;19908;-53
2022/05/31 10:35:09;;;;;;;;;;;18.80;98.00;;;;;;5075699;28;19950;-52
2022/05/31 10:37:35;;;;;;;;;;;18.80;98.00;;;;;;5075356;28;19912;-54
2022/05/31 10:40:16;;;;;;;;;;;18.80;98.00;;;;;;5075710;28;19920;-53
2022/05/31 10:42:44;;;;;;;;;;;18.80;98.00;;;;;;5075374;28;19908;-54
2022/05/31 10:45:12;;;;;;;;;;;18.80;97.90;;;;;;5075440;28;20266;-52
2022/05/31 10:47:37;;;;;;;;;;;18.80;98.00;;;;;;5074092;28;19916;-54
2022/05/31 10:50:07;;;;;;;;;;;18.80;98.00;;;;;;5075399;28;19909;-51
2022/05/31 10:52:35;;;;;;;;;;;18.80;97.90;;;;;;5075755;28;20012;-55
2022/05/31 10:55:16;;;;;;;;;;;18.80;97.90;;;;;;5075411;28;20333;-54
2022/05/31 10:57:41;;;;;;;;;;;18.80;98.00;;;;;;5075507;28;19908;-53
2022/05/31 11:00:18;;;;;;;;;;;18.80;98.00;;;;;;5075315;28;19913;-50
2022/05/31 11:02:53;;;;;;;;;;;18.80;98.00;;;;;;5057301;28;20283;-55
2022/05/31 11:05:22;;;;;;;;;;;18.80;98.00;;;;;;5075120;28;19912;-51
2022/05/31 11:14:11;;;;;;;;;;;18.80;98.00;;;;;;5075233;28;19916;-55
2022/05/31 11:16:37;;;;;;;;;;;18.80;98.10;;;;;;5074897;28;20360;-54
2022/05/31 11:19:08;;;;;;;;;;;18.80;98.10;;;;;;5074967;28;19913;-52
2022/05/31 11:21:34;;;;;;;;;;;18.80;98.00;;;;;;5074897;28;20245;-50
2022/05/31 11:24:08;;;;;;;;;;;18.80;98.10;;;;;;5075053;28;19913;-49
2022/05/31 11:26:46;;;;;;;;;;;18.80;98.10;;;;;;5074578;28;19909;-54
2022/05/31 11:29:29;;;;;;;;;;;18.80;98.10;;;;;;5074500;28;19908;-54
2022/05/31 11:32:13;;;;;;;;;;;18.80;98.10;;;;;;5074749;28;19915;-55
2022/05/31 11:34:45;;;;;;;;;;;18.80;98.10;;;;;;5074586;28;20272;-56
2022/05/31 11:37:27;;;;;;;;;;;18.80;98.10;;;;;;5074780;28;20273;-55
2022/05/31 11:40:15;;;;;;;;;;;18.80;98.10;;;;;;5074897;28;19919;-51
2022/05/31 11:42:43;;;;;;;;;;;18.80;98.30;;;;;;5060793;28;20010;-55
2022/05/31 11:45:18;;;;;;;;;;;18.90;98.10;;;;;;5074206;28;20295;-54
2022/05/31 11:47:55;;;;;;;;;;;18.80;98.10;;;;;;5074450;28;19908;-55
2022/05/31 11:50:24;;;;;;;;;;;18.90;98.10;;;;;;5074567;28;19916;-53
2022/05/31 11:53:03;;;;;;;;;;;18.80;98.10;;;;;;5074082;28;19916;-53
2022/05/31 11:55:35;;;;;;;;;;;18.90;98.10;;;;;;5074711;28;19920;-53
2022/05/31 11:58:17;;;;;;;;;;;18.90;98.10;;;;;;5073686;28;20007;-53
2022/05/31 12:00:46;;;;;;;;;;;18.90;98.10;;;;;;5056237;28;20007;-52
2022/05/31 12:03:27;;;;;;;;;;;18.90;98.10;;;;;;5074357;28;19915;-53
2022/05/31 12:05:55;;;;;;;;;;;18.90;98.10;;;;;;5074248;28;19915;-54
2022/05/31 12:08:24;;;;;;;;;;;18.90;98.10;;;;;;5074310;28;19915;-53
2022/05/31 12:10:56;;;;;;;;;;;18.90;98.10;;;;;;5074633;28;19962;-54
2022/05/31 12:13:22;;;;;;;;;;;18.90;98.10;;;;;;5074109;28;20367;-54
2022/05/31 12:15:49;;;;;;;;;;;18.90;98.10;;;;;;5056076;28;19934;-54
2022/05/31 12:18:15;;;;;;;;;;;18.90;98.10;;;;;;5073816;28;19913;-54
2022/05/31 12:20:43;;;;;;;;;;;18.90;98.10;;;;;;5074084;28;19913;-54
2022/05/31 12:23:13;;;;;;;;;;;18.90;98.10;;;;;;5074352;28;19962;-53
2022/05/31 12:25:41;;;;;;;;;;;18.90;98.10;;;;;;5073938;28;19916;-56
2022/05/31 12:28:22;;;;;;;;;;;18.90;98.30;;;;;;5055821;28;19916;-53
2022/05/31 12:30:53;;;;;;;;;;;18.90;98.10;;;;;;5074000;28;19915;-53
2022/05/31 12:36:03;;;;;;;;;;;18.90;98.10;;;;;;5073783;28;19995;-54
2022/05/31 12:38:29;;;;;;;;;;;18.90;98.00;;;;;;5073379;28;20007;-52
2022/05/31 12:40:55;;;;;;;;;;;18.90;98.00;;;;;;5055813;28;19919;-54
2022/05/31 12:43:51;;;;;;;;;;;18.90;98.00;;;;;;5074279;28;19909;-54
2022/05/31 12:46:21;;;;;;;;;;;18.90;98.00;;;;;;5052586;28;19912;-54
2022/05/31 12:48:51;;;;;;;;;;;18.90;98.00;;;;;;5073604;28;20355;-55
2022/05/31 12:51:20;;;;;;;;;;;18.90;98.00;;;;;;5073362;28;19909;-51
2022/05/31 12:54:00;;;;;;;;;;;18.90;98.00;;;;;;5073273;28;20375;-55
2022/05/31 12:56:34;;;;;;;;;;;18.90;98.00;;;;;;5073343;28;20012;-55
2022/05/31 12:59:00;;;;;;;;;;;18.90;98.00;;;;;;5073255;28;19919;-55
2022/05/31 13:01:26;;;;;;;;;;;18.90;98.00;;;;;;5073400;28;20471;-53
2022/05/31 13:03:53;;;;;;;;;;;18.90;98.00;;;;;;5073127;28;19952;-54
2022/05/31 13:06:21;;;;;;;;;;;18.90;98.00;;;;;;5073164;28;19953;-52
2022/05/31 13:08:52;;;;;;;;;;;18.90;98.00;;;;;;5073442;28;19919;-53
2022/05/31 13:19:57;;;;;;;;;;;19.00;98.00;;;;;;5077006;28;19923;-53
2022/05/31 13:22:23;;;;;;;;;;;19.00;98.00;;;;;;5077010;28;19920;-54
2022/05/31 13:25:01;;;;;;;;;;;19.00;98.00;;;;;;5076654;28;19908;-52
2022/05/31 13:27:29;;;;;;;;;;;19.00;98.00;;;;;;5077082;28;19908;-53
2022/05/31 13:30:01;;;;;;;;;;;19.00;98.00;;;;;;5076954;28;19943;-55
2022/05/31 13:32:31;;;;;;;;;;;19.00;98.00;;;;;;5059394;28;20274;-53
2022/05/31 13:34:56;;;;;;;;;;;19.00;98.00;;;;;;5077169;28;19916;-50
2022/05/31 13:37:22;;;;;;;;;;;19.00;98.00;;;;;;5077070;28;20007;-53
2022/05/31 13:39:49;;;;;;;;;;;18.90;97.90;;;;;;5076725;28;19916;-54
2022/05/31 13:42:17;;;;;;;;;;;19.00;98.00;;;;;;5076749;28;20374;-52
2022/05/31 13:44:43;;;;;;;;;;;19.00;98.00;;;;;;5076507;28;20487;-51
2022/05/31 13:47:11;;;;;;;;;;;19.00;98.20;;;;;;5076398;28;19922;-50
2022/05/31 13:49:41;;;;;;;;;;;19.00;98.00;;;;;;5077192;28;19908;-52
2022/05/31 13:52:27;;;;;;;;;;;19.00;98.00;;;;;;5076507;28;19913;-54
2022/05/31 13:55:05;;;;;;;;;;;19.00;97.90;;;;;;5076607;28;19927;-54
2022/05/31 13:57:31;;;;;;;;;;;19.00;97.90;;;;;;5076588;28;19909;-52
2022/05/31 13:59:57;;;;;;;;;;;19.00;97.90;;;;;;5058429;28;19943;-53
2022/05/31 14:02:22;;;;;;;;;;;19.00;97.90;;;;;;5076478;28;19908;-52
2022/05/31 14:04:55;;;;;;;;;;;19.00;97.90;;;;;;5076416;28;19908;-55
2022/05/31 14:07:22;;;;;;;;;;;19.00;97.90;;;;;;5076251;28;20271;-52
2022/05/31 14:09:54;;;;;;;;;;;19.00;97.90;;;;;;5076811;28;20310;-55
2022/05/31 14:12:21;;;;;;;;;;;19.00;97.90;;;;;;5076332;28;19962;-53
2022/05/31 14:14:50;;;;;;;;;;;19.00;97.90;;;;;;5076029;28;19912;-54
2022/05/31 14:17:30;;;;;;;;;;;19.00;97.90;;;;;;5076114;28;19908;-55
2022/05/31 14:19:56;;;;;;;;;;;19.00;97.90;;;;;;5076010;28;19912;-54
2022/05/31 14:22:27;;;;;;;;;;;19.00;97.90;;;;;;5075787;28;20371;-53
2022/05/31 14:24:53;;;;;;;;;;;19.00;98.10;;;;;;5076154;28;19915;-51
2022/05/31 14:27:20;;;;;;;;;;;19.00;97.90;;;;;;5075726;28;20298;-55
2022/05/31 14:29:57;;;;;;;;;;;19.00;97.90;;;;;;5075838;28;20007;-52
2022/05/31 14:32:26;;;;;;;;;;;19.00;97.90;;;;;;5075919;28;20026;-53
2022/05/31 14:34:52;;;;;;;;;;;19.00;97.90;;;;;;5075788;28;20020;-53
2022/05/31 14:37:44;;;;;;;;;;;19.00;97.90;;;;;;5075273;28;19909;-53
2022/05/31 14:40:12;;;;;;;;;;;19.00;97.90;;;;;;5057246;28;20007;-52
2022/05/31 14:42:40;;;;;;;;;;;19.00;97.90;;;;;;5075165;28;19963;-53
2022/05/31 14:45:11;;;;;;;;;;;19.00;97.80;;;;;;5057327;28;19908;-49
2022/05/31 14:47:38;;;;;;;;;;;19.00;97.90;;;;;;5057375;28;20291;-53
2022/05/31 14:50:10;;;;;;;;;;;19.00;97.80;;;;;;5075228;28;20271;-51
2022/05/31 14:52:49;;;;;;;;;;;19.00;97.80;;;;;;5075444;28;19908;-54
2022/05/31 14:55:15;;;;;;;;;;;19.00;97.80;;;;;;5075358;28;20007;-50
2022/05/31 15:00:24;;;;;;;;;;;19.00;97.80;;;;;;5075162;28;20382;-52
2022/05/31 15:02:51;;;;;;;;;;;19.00;97.80;;;;;;5075313;28;19909;-54
2022/05/31 15:05:24;;;;;;;;;;;19.00;97.80;;;;;;5074746;28;20288;-54
2022/05/31 15:07:55;;;;;;;;;;;19.00;97.80;;;;;;5074844;28;19909;-51